sensor_id;sensor_type;location;lat;lon;timestamp;P1;durP1;ratioP1;P2;durP2;ratioP2
51995;SDS011;38010;53.264;6.592;2023-02-28T00:00:50;0.60;;;0.43;;
51995;SDS011;38010;53.264;6.592;2023-02-28T00:03:16;1.00;;;0.70;;
51995;SDS011;38010;53.264;6.592;2023-02-28T00:05:41;0.52;;;0.52;;
51995;SDS011;38010;53.264;6.592;2023-02-28T00:08:07;0.88;;;0.60;;
51995;SDS011;38010;53.264;6.592;2023-02-28T00:10:33;0.50;;;0.50;;
51995;SDS011;38010;53.264;6.592;2023-02-28T00:13:00;0.60;;;0.60;;
51995;SDS011;38010;53.264;6.592;2023-02-28T00:15:28;0.82;;;0.60;;
51995;SDS011;38010;53.264;6.592;2023-02-28T00:17:54;1.50;;;0.52;;
51995;SDS011;38010;53.264;6.592;2023-02-28T00:20:20;0.60;;;0.50;;
51995;SDS011;38010;53.264;6.592;2023-02-28T00:22:47;0.50;;;0.50;;
51995;SDS011;38010;53.264;6.592;2023-02-28T00:25:16;0.50;;;0.50;;
51995;SDS011;38010;53.264;6.592;2023-02-28T00:27:44;0.50;;;0.50;;
51995;SDS011;38010;53.264;6.592;2023-02-28T00:30:12;1.10;;;0.50;;
51995;SDS011;38010;53.264;6.592;2023-02-28T00:32:39;0.85;;;0.50;;
51995;SDS011;38010;53.264;6.592;2023-02-28T00:35:05;0.55;;;0.50;;
51995;SDS011;38010;53.264;6.592;2023-02-28T00:37:32;0.50;;;0.50;;
51995;SDS011;38010;53.264;6.592;2023-02-28T00:39:57;0.82;;;0.55;;
51995;SDS011;38010;53.264;6.592;2023-02-28T00:42:23;0.40;;;0.40;;
51995;SDS011;38010;53.264;6.592;2023-02-28T00:44:49;0.40;;;0.40;;
51995;SDS011;38010;53.264;6.592;2023-02-28T00:47:15;1.00;;;0.50;;
51995;SDS011;38010;53.264;6.592;2023-02-28T00:49:41;0.85;;;0.45;;
51995;SDS011;38010;53.264;6.592;2023-02-28T00:52:07;0.55;;;0.50;;
51995;SDS011;38010;53.264;6.592;2023-02-28T00:54:32;1.48;;;0.85;;
51995;SDS011;38010;53.264;6.592;2023-02-28T00:56:58;0.73;;;0.50;;
51995;SDS011;38010;53.264;6.592;2023-02-28T00:59:24;0.50;;;0.47;;
51995;SDS011;38010;53.264;6.592;2023-02-28T01:01:50;0.88;;;0.60;;
51995;SDS011;38010;53.264;6.592;2023-02-28T01:04:16;1.02;;;0.60;;
51995;SDS011;38010;53.264;6.592;2023-02-28T01:06:42;0.90;;;0.60;;
51995;SDS011;38010;53.264;6.592;2023-02-28T01:09:07;0.40;;;0.40;;
51995;SDS011;38010;53.264;6.592;2023-02-28T01:11:34;0.77;;;0.57;;
51995;SDS011;38010;53.264;6.592;2023-02-28T01:14:00;0.50;;;0.40;;
51995;SDS011;38010;53.264;6.592;2023-02-28T01:16:27;0.50;;;0.50;;
51995;SDS011;38010;53.264;6.592;2023-02-28T01:18:52;0.68;;;0.50;;
51995;SDS011;38010;53.264;6.592;2023-02-28T01:21:19;0.50;;;0.50;;
51995;SDS011;38010;53.264;6.592;2023-02-28T01:23:45;0.77;;;0.50;;
51995;SDS011;38010;53.264;6.592;2023-02-28T01:26:16;1.42;;;0.70;;
51995;SDS011;38010;53.264;6.592;2023-02-28T01:28:43;0.40;;;0.40;;
51995;SDS011;38010;53.264;6.592;2023-02-28T01:31:09;1.02;;;0.50;;
51995;SDS011;38010;53.264;6.592;2023-02-28T01:33:35;0.50;;;0.50;;
51995;SDS011;38010;53.264;6.592;2023-02-28T01:36:06;0.52;;;0.43;;
51995;SDS011;38010;53.264;6.592;2023-02-28T01:38:33;0.40;;;0.40;;
51995;SDS011;38010;53.264;6.592;2023-02-28T01:40:59;0.40;;;0.40;;
51995;SDS011;38010;53.264;6.592;2023-02-28T01:43:26;0.60;;;0.45;;
51995;SDS011;38010;53.264;6.592;2023-02-28T01:45:54;0.50;;;0.50;;
51995;SDS011;38010;53.264;6.592;2023-02-28T01:48:23;0.50;;;0.50;;
51995;SDS011;38010;53.264;6.592;2023-02-28T01:50:51;0.93;;;0.47;;
51995;SDS011;38010;53.264;6.592;2023-02-28T01:53:19;0.60;;;0.50;;
51995;SDS011;38010;53.264;6.592;2023-02-28T01:55:51;0.60;;;0.60;;
51995;SDS011;38010;53.264;6.592;2023-02-28T01:58:18;0.45;;;0.45;;
51995;SDS011;38010;53.264;6.592;2023-02-28T02:00:45;0.50;;;0.50;;
51995;SDS011;38010;53.264;6.592;2023-02-28T02:03:15;0.90;;;0.47;;
51995;SDS011;38010;53.264;6.592;2023-02-28T02:05:44;0.70;;;0.43;;
51995;SDS011;38010;53.264;6.592;2023-02-28T02:08:22;0.80;;;0.57;;
51995;SDS011;38010;53.264;6.592;2023-02-28T02:11:00;1.02;;;0.60;;
51995;SDS011;38010;53.264;6.592;2023-02-28T02:16:26;0.50;;;0.50;;
51995;SDS011;38010;53.264;6.592;2023-02-28T02:27:39;0.60;;;0.40;;
51995;SDS011;38010;53.264;6.592;2023-02-28T02:35:56;0.57;;;0.57;;
51995;SDS011;38010;53.264;6.592;2023-02-28T02:41:04;0.52;;;0.40;;
51995;SDS011;38010;53.264;6.592;2023-02-28T02:43:51;0.65;;;0.50;;
51995;SDS011;38010;53.264;6.592;2023-02-28T02:46:25;1.10;;;0.45;;
51995;SDS011;38010;53.264;6.592;2023-02-28T02:48:59;0.40;;;0.40;;
51995;SDS011;38010;53.264;6.592;2023-02-28T02:51:29;0.43;;;0.40;;
51995;SDS011;38010;53.264;6.592;2023-02-28T02:53:59;1.63;;;0.45;;
51995;SDS011;38010;53.264;6.592;2023-02-28T02:56:31;0.40;;;0.40;;
51995;SDS011;38010;53.264;6.592;2023-02-28T02:59:02;0.40;;;0.40;;
51995;SDS011;38010;53.264;6.592;2023-02-28T03:01:32;0.30;;;0.30;;
51995;SDS011;38010;53.264;6.592;2023-02-28T03:04:02;0.77;;;0.50;;
51995;SDS011;38010;53.264;6.592;2023-02-28T03:06:37;1.02;;;0.50;;
51995;SDS011;38010;53.264;6.592;2023-02-28T03:09:02;0.47;;;0.40;;
51995;SDS011;38010;53.264;6.592;2023-02-28T03:11:29;0.88;;;0.50;;
51995;SDS011;38010;53.264;6.592;2023-02-28T03:16:44;0.50;;;0.40;;
51995;SDS011;38010;53.264;6.592;2023-02-28T03:22:52;0.70;;;0.50;;
51995;SDS011;38010;53.264;6.592;2023-02-28T03:25:17;1.00;;;0.50;;
51995;SDS011;38010;53.264;6.592;2023-02-28T03:33:14;0.40;;;0.40;;
51995;SDS011;38010;53.264;6.592;2023-02-28T03:36:13;0.35;;;0.35;;
51995;SDS011;38010;53.264;6.592;2023-02-28T03:41:10;1.02;;;0.40;;
51995;SDS011;38010;53.264;6.592;2023-02-28T03:43:45;0.60;;;0.40;;
51995;SDS011;38010;53.264;6.592;2023-02-28T03:46:21;1.08;;;0.50;;
51995;SDS011;38010;53.264;6.592;2023-02-28T03:48:53;0.40;;;0.40;;
51995;SDS011;38010;53.264;6.592;2023-02-28T03:51:25;0.30;;;0.30;;
51995;SDS011;38010;53.264;6.592;2023-02-28T03:53:54;0.82;;;0.40;;
51995;SDS011;38010;53.264;6.592;2023-02-28T03:56:32;0.40;;;0.40;;
51995;SDS011;38010;53.264;6.592;2023-02-28T03:59:14;0.32;;;0.32;;
51995;SDS011;38010;53.264;6.592;2023-02-28T04:01:47;0.57;;;0.40;;
51995;SDS011;38010;53.264;6.592;2023-02-28T04:04:14;0.35;;;0.30;;
51995;SDS011;38010;53.264;6.592;2023-02-28T04:06:41;0.40;;;0.40;;
51995;SDS011;38010;53.264;6.592;2023-02-28T04:09:09;0.77;;;0.50;;
51995;SDS011;38010;53.264;6.592;2023-02-28T04:11:37;0.35;;;0.30;;
51995;SDS011;38010;53.264;6.592;2023-02-28T04:14:09;0.30;;;0.30;;
51995;SDS011;38010;53.264;6.592;2023-02-28T04:16:37;1.23;;;0.52;;
51995;SDS011;38010;53.264;6.592;2023-02-28T04:19:06;1.15;;;0.40;;
51995;SDS011;38010;53.264;6.592;2023-02-28T04:21:35;0.60;;;0.50;;
51995;SDS011;38010;53.264;6.592;2023-02-28T04:24:04;0.70;;;0.57;;
51995;SDS011;38010;53.264;6.592;2023-02-28T04:26:31;0.43;;;0.43;;
51995;SDS011;38010;53.264;6.592;2023-02-28T04:28:59;0.40;;;0.40;;
51995;SDS011;38010;53.264;6.592;2023-02-28T04:31:25;0.40;;;0.40;;
51995;SDS011;38010;53.264;6.592;2023-02-28T04:33:51;0.40;;;0.40;;
51995;SDS011;38010;53.264;6.592;2023-02-28T04:36:17;0.95;;;0.60;;
51995;SDS011;38010;53.264;6.592;2023-02-28T04:38:43;0.70;;;0.50;;
51995;SDS011;38010;53.264;6.592;2023-02-28T04:41:10;0.55;;;0.40;;
51995;SDS011;38010;53.264;6.592;2023-02-28T04:43:36;1.00;;;0.50;;
51995;SDS011;38010;53.264;6.592;2023-02-28T04:46:02;0.60;;;0.50;;
51995;SDS011;38010;53.264;6.592;2023-02-28T04:48:30;1.10;;;0.50;;
51995;SDS011;38010;53.264;6.592;2023-02-28T04:51:01;0.43;;;0.40;;
51995;SDS011;38010;53.264;6.592;2023-02-28T04:53:28;0.70;;;0.70;;
51995;SDS011;38010;53.264;6.592;2023-02-28T04:55:55;0.80;;;0.50;;
51995;SDS011;38010;53.264;6.592;2023-02-28T04:58:21;0.77;;;0.50;;
51995;SDS011;38010;53.264;6.592;2023-02-28T05:00:50;0.70;;;0.70;;
51995;SDS011;38010;53.264;6.592;2023-02-28T05:03:16;0.57;;;0.50;;
51995;SDS011;38010;53.264;6.592;2023-02-28T05:05:42;0.75;;;0.40;;
51995;SDS011;38010;53.264;6.592;2023-02-28T05:08:08;0.50;;;0.50;;
51995;SDS011;38010;53.264;6.592;2023-02-28T05:10:35;0.60;;;0.40;;
51995;SDS011;38010;53.264;6.592;2023-02-28T05:13:01;0.63;;;0.50;;
51995;SDS011;38010;53.264;6.592;2023-02-28T05:15:27;0.60;;;0.47;;
51995;SDS011;38010;53.264;6.592;2023-02-28T05:17:53;0.60;;;0.50;;
51995;SDS011;38010;53.264;6.592;2023-02-28T05:20:19;0.52;;;0.52;;
51995;SDS011;38010;53.264;6.592;2023-02-28T05:22:45;0.52;;;0.40;;
51995;SDS011;38010;53.264;6.592;2023-02-28T05:25:17;0.60;;;0.60;;
51995;SDS011;38010;53.264;6.592;2023-02-28T05:27:44;0.40;;;0.40;;
51995;SDS011;38010;53.264;6.592;2023-02-28T05:30:10;0.50;;;0.50;;
51995;SDS011;38010;53.264;6.592;2023-02-28T05:32:37;0.50;;;0.50;;
51995;SDS011;38010;53.264;6.592;2023-02-28T05:35:03;0.50;;;0.50;;
51995;SDS011;38010;53.264;6.592;2023-02-28T05:37:29;0.40;;;0.40;;
51995;SDS011;38010;53.264;6.592;2023-02-28T05:39:55;0.50;;;0.50;;
51995;SDS011;38010;53.264;6.592;2023-02-28T05:42:20;0.50;;;0.50;;
51995;SDS011;38010;53.264;6.592;2023-02-28T05:44:46;0.50;;;0.50;;
51995;SDS011;38010;53.264;6.592;2023-02-28T05:47:12;0.70;;;0.50;;
51995;SDS011;38010;53.264;6.592;2023-02-28T05:49:40;0.50;;;0.50;;
51995;SDS011;38010;53.264;6.592;2023-02-28T05:52:07;0.52;;;0.50;;
51995;SDS011;38010;53.264;6.592;2023-02-28T05:54:32;0.50;;;0.40;;
51995;SDS011;38010;53.264;6.592;2023-02-28T05:56:58;0.40;;;0.40;;
51995;SDS011;38010;53.264;6.592;2023-02-28T05:59:24;0.75;;;0.50;;
51995;SDS011;38010;53.264;6.592;2023-02-28T06:01:50;0.40;;;0.40;;
51995;SDS011;38010;53.264;6.592;2023-02-28T06:04:17;0.73;;;0.50;;
51995;SDS011;38010;53.264;6.592;2023-02-28T06:06:47;0.52;;;0.50;;
51995;SDS011;38010;53.264;6.592;2023-02-28T06:09:14;0.73;;;0.50;;
51995;SDS011;38010;53.264;6.592;2023-02-28T06:11:41;1.05;;;0.52;;
51995;SDS011;38010;53.264;6.592;2023-02-28T06:14:07;0.55;;;0.40;;
51995;SDS011;38010;53.264;6.592;2023-02-28T06:16:37;0.52;;;0.50;;
51995;SDS011;38010;53.264;6.592;2023-02-28T06:19:03;1.08;;;0.50;;
51995;SDS011;38010;53.264;6.592;2023-02-28T06:21:29;0.65;;;0.60;;
51995;SDS011;38010;53.264;6.592;2023-02-28T06:23:56;0.68;;;0.50;;
51995;SDS011;38010;53.264;6.592;2023-02-28T06:26:23;0.50;;;0.40;;
51995;SDS011;38010;53.264;6.592;2023-02-28T06:28:49;0.60;;;0.60;;
51995;SDS011;38010;53.264;6.592;2023-02-28T06:31:15;0.50;;;0.50;;
51995;SDS011;38010;53.264;6.592;2023-02-28T06:33:43;0.57;;;0.57;;
51995;SDS011;38010;53.264;6.592;2023-02-28T06:36:10;0.50;;;0.50;;
51995;SDS011;38010;53.264;6.592;2023-02-28T06:38:38;0.70;;;0.60;;
51995;SDS011;38010;53.264;6.592;2023-02-28T06:41:04;0.60;;;0.50;;
51995;SDS011;38010;53.264;6.592;2023-02-28T06:43:33;0.60;;;0.60;;
51995;SDS011;38010;53.264;6.592;2023-02-28T06:46:01;0.77;;;0.70;;
51995;SDS011;38010;53.264;6.592;2023-02-28T06:48:28;0.88;;;0.63;;
51995;SDS011;38010;53.264;6.592;2023-02-28T06:51:10;0.85;;;0.60;;
51995;SDS011;38010;53.264;6.592;2023-02-28T06:53:39;0.60;;;0.50;;
51995;SDS011;38010;53.264;6.592;2023-02-28T06:56:06;0.57;;;0.50;;
51995;SDS011;38010;53.264;6.592;2023-02-28T06:58:37;1.45;;;0.52;;
51995;SDS011;38010;53.264;6.592;2023-02-28T07:01:04;1.05;;;0.60;;
51995;SDS011;38010;53.264;6.592;2023-02-28T07:03:30;0.57;;;0.57;;
51995;SDS011;38010;53.264;6.592;2023-02-28T07:05:56;0.45;;;0.40;;
51995;SDS011;38010;53.264;6.592;2023-02-28T07:08:25;0.73;;;0.60;;
51995;SDS011;38010;53.264;6.592;2023-02-28T07:10:55;0.50;;;0.50;;
51995;SDS011;38010;53.264;6.592;2023-02-28T07:13:23;0.60;;;0.60;;
51995;SDS011;38010;53.264;6.592;2023-02-28T07:16:09;0.80;;;0.60;;
51995;SDS011;38010;53.264;6.592;2023-02-28T07:18:36;0.70;;;0.70;;
51995;SDS011;38010;53.264;6.592;2023-02-28T07:21:03;0.60;;;0.60;;
51995;SDS011;38010;53.264;6.592;2023-02-28T07:23:29;0.90;;;0.60;;
51995;SDS011;38010;53.264;6.592;2023-02-28T07:25:55;0.55;;;0.55;;
51995;SDS011;38010;53.264;6.592;2023-02-28T07:28:21;0.60;;;0.60;;
51995;SDS011;38010;53.264;6.592;2023-02-28T07:30:47;0.80;;;0.77;;
51995;SDS011;38010;53.264;6.592;2023-02-28T07:33:13;0.50;;;0.50;;
51995;SDS011;38010;53.264;6.592;2023-02-28T07:35:39;0.93;;;0.60;;
51995;SDS011;38010;53.264;6.592;2023-02-28T07:38:05;0.77;;;0.70;;
51995;SDS011;38010;53.264;6.592;2023-02-28T07:40:32;1.45;;;0.70;;
51995;SDS011;38010;53.264;6.592;2023-02-28T07:42:59;0.77;;;0.70;;
51995;SDS011;38010;53.264;6.592;2023-02-28T07:45:26;0.65;;;0.60;;
51995;SDS011;38010;53.264;6.592;2023-02-28T07:47:54;1.25;;;0.60;;
51995;SDS011;38010;53.264;6.592;2023-02-28T07:50:20;0.73;;;0.73;;
51995;SDS011;38010;53.264;6.592;2023-02-28T07:52:46;0.60;;;0.60;;
51995;SDS011;38010;53.264;6.592;2023-02-28T07:55:11;1.10;;;0.60;;
51995;SDS011;38010;53.264;6.592;2023-02-28T07:57:38;0.57;;;0.57;;
51995;SDS011;38010;53.264;6.592;2023-02-28T08:00:05;0.60;;;0.60;;
51995;SDS011;38010;53.264;6.592;2023-02-28T08:02:34;0.70;;;0.70;;
51995;SDS011;38010;53.264;6.592;2023-02-28T08:05:00;0.60;;;0.60;;
51995;SDS011;38010;53.264;6.592;2023-02-28T08:07:26;0.55;;;0.55;;
51995;SDS011;38010;53.264;6.592;2023-02-28T08:09:51;1.00;;;0.73;;
51995;SDS011;38010;53.264;6.592;2023-02-28T08:12:17;0.95;;;0.80;;
51995;SDS011;38010;53.264;6.592;2023-02-28T08:14:43;1.30;;;0.68;;
51995;SDS011;38010;53.264;6.592;2023-02-28T08:17:09;1.00;;;0.70;;
51995;SDS011;38010;53.264;6.592;2023-02-28T08:19:36;0.80;;;0.75;;
51995;SDS011;38010;53.264;6.592;2023-02-28T08:22:01;0.65;;;0.57;;
51995;SDS011;38010;53.264;6.592;2023-02-28T08:24:27;0.90;;;0.70;;
51995;SDS011;38010;53.264;6.592;2023-02-28T08:26:53;1.00;;;0.63;;
51995;SDS011;38010;53.264;6.592;2023-02-28T08:29:19;0.60;;;0.60;;
51995;SDS011;38010;53.264;6.592;2023-02-28T08:31:45;0.80;;;0.60;;
51995;SDS011;38010;53.264;6.592;2023-02-28T08:34:12;0.88;;;0.80;;
51995;SDS011;38010;53.264;6.592;2023-02-28T08:36:39;0.70;;;0.70;;
51995;SDS011;38010;53.264;6.592;2023-02-28T08:39:06;0.80;;;0.70;;
51995;SDS011;38010;53.264;6.592;2023-02-28T08:41:32;0.63;;;0.60;;
51995;SDS011;38010;53.264;6.592;2023-02-28T08:43:58;0.70;;;0.70;;
51995;SDS011;38010;53.264;6.592;2023-02-28T08:46:25;0.80;;;0.70;;
51995;SDS011;38010;53.264;6.592;2023-02-28T08:48:51;0.73;;;0.70;;
51995;SDS011;38010;53.264;6.592;2023-02-28T08:51:18;0.50;;;0.50;;
51995;SDS011;38010;53.264;6.592;2023-02-28T08:54:09;0.70;;;0.70;;
51995;SDS011;38010;53.264;6.592;2023-02-28T08:56:37;0.70;;;0.70;;
51995;SDS011;38010;53.264;6.592;2023-02-28T08:59:03;1.45;;;0.65;;
51995;SDS011;38010;53.264;6.592;2023-02-28T09:01:29;1.20;;;0.70;;
51995;SDS011;38010;53.264;6.592;2023-02-28T09:03:56;1.02;;;0.70;;
51995;SDS011;38010;53.264;6.592;2023-02-28T09:06:23;0.80;;;0.60;;
51995;SDS011;38010;53.264;6.592;2023-02-28T09:08:50;1.67;;;0.70;;
51995;SDS011;38010;53.264;6.592;2023-02-28T09:11:16;0.73;;;0.70;;
51995;SDS011;38010;53.264;6.592;2023-02-28T09:13:43;1.00;;;0.60;;
51995;SDS011;38010;53.264;6.592;2023-02-28T09:16:10;1.33;;;0.80;;
51995;SDS011;38010;53.264;6.592;2023-02-28T09:18:38;1.13;;;0.82;;
51995;SDS011;38010;53.264;6.592;2023-02-28T09:21:08;0.98;;;0.77;;
51995;SDS011;38010;53.264;6.592;2023-02-28T09:23:40;0.60;;;0.60;;
51995;SDS011;38010;53.264;6.592;2023-02-28T09:26:06;0.88;;;0.80;;
51995;SDS011;38010;53.264;6.592;2023-02-28T09:28:33;0.95;;;0.80;;
51995;SDS011;38010;53.264;6.592;2023-02-28T09:30:58;1.38;;;0.80;;
51995;SDS011;38010;53.264;6.592;2023-02-28T09:33:24;0.88;;;0.80;;
51995;SDS011;38010;53.264;6.592;2023-02-28T09:35:53;0.70;;;0.70;;
51995;SDS011;38010;53.264;6.592;2023-02-28T09:38:23;0.77;;;0.73;;
51995;SDS011;38010;53.264;6.592;2023-02-28T09:40:56;0.65;;;0.65;;
51995;SDS011;38010;53.264;6.592;2023-02-28T09:43:25;0.65;;;0.63;;
51995;SDS011;38010;53.264;6.592;2023-02-28T09:45:59;0.50;;;0.50;;
51995;SDS011;38010;53.264;6.592;2023-02-28T09:48:46;0.60;;;0.60;;
51995;SDS011;38010;53.264;6.592;2023-02-28T09:54:23;0.70;;;0.70;;
51995;SDS011;38010;53.264;6.592;2023-02-28T09:57:06;0.93;;;0.70;;
51995;SDS011;38010;53.264;6.592;2023-02-28T09:59:45;2.38;;;0.80;;
51995;SDS011;38010;53.264;6.592;2023-02-28T10:05:33;0.80;;;0.73;;
51995;SDS011;38010;53.264;6.592;2023-02-28T10:08:39;1.40;;;0.90;;
51995;SDS011;38010;53.264;6.592;2023-02-28T10:16:11;1.58;;;0.82;;
51995;SDS011;38010;53.264;6.592;2023-02-28T10:18:42;0.63;;;0.63;;
51995;SDS011;38010;53.264;6.592;2023-02-28T10:21:17;0.85;;;0.80;;
51995;SDS011;38010;53.264;6.592;2023-02-28T10:23:56;0.82;;;0.70;;
51995;SDS011;38010;53.264;6.592;2023-02-28T10:26:28;0.90;;;0.70;;
51995;SDS011;38010;53.264;6.592;2023-02-28T10:28:56;1.00;;;0.75;;
51995;SDS011;38010;53.264;6.592;2023-02-28T10:31:22;0.70;;;0.70;;
51995;SDS011;38010;53.264;6.592;2023-02-28T10:33:48;0.60;;;0.60;;
51995;SDS011;38010;53.264;6.592;2023-02-28T10:36:16;0.80;;;0.65;;
51995;SDS011;38010;53.264;6.592;2023-02-28T10:38:44;0.98;;;0.65;;
51995;SDS011;38010;53.264;6.592;2023-02-28T10:41:16;0.75;;;0.70;;
51995;SDS011;38010;53.264;6.592;2023-02-28T10:43:53;0.70;;;0.70;;
51995;SDS011;38010;53.264;6.592;2023-02-28T10:46:39;0.73;;;0.70;;
51995;SDS011;38010;53.264;6.592;2023-02-28T10:49:12;0.60;;;0.60;;
51995;SDS011;38010;53.264;6.592;2023-02-28T10:51:50;0.95;;;0.77;;
51995;SDS011;38010;53.264;6.592;2023-02-28T10:54:19;0.93;;;0.80;;
51995;SDS011;38010;53.264;6.592;2023-02-28T10:59:42;0.55;;;0.55;;
51995;SDS011;38010;53.264;6.592;2023-02-28T11:04:55;0.60;;;0.60;;
51995;SDS011;38010;53.264;6.592;2023-02-28T11:07:21;0.77;;;0.70;;
51995;SDS011;38010;53.264;6.592;2023-02-28T11:09:50;1.17;;;0.70;;
51995;SDS011;38010;53.264;6.592;2023-02-28T11:12:25;0.90;;;0.70;;
51995;SDS011;38010;53.264;6.592;2023-02-28T11:15:00;1.55;;;0.90;;
51995;SDS011;38010;53.264;6.592;2023-02-28T11:17:32;0.80;;;0.80;;
51995;SDS011;38010;53.264;6.592;2023-02-28T11:20:03;0.60;;;0.60;;
51995;SDS011;38010;53.264;6.592;2023-02-28T11:22:36;1.77;;;0.80;;
51995;SDS011;38010;53.264;6.592;2023-02-28T11:25:29;1.02;;;0.80;;
51995;SDS011;38010;53.264;6.592;2023-02-28T11:27:57;1.00;;;0.90;;
51995;SDS011;38010;53.264;6.592;2023-02-28T11:32:55;1.13;;;0.82;;
51995;SDS011;38010;53.264;6.592;2023-02-28T11:35:23;1.17;;;0.70;;
51995;SDS011;38010;53.264;6.592;2023-02-28T11:37:52;1.08;;;0.70;;
51995;SDS011;38010;53.264;6.592;2023-02-28T11:40:19;1.33;;;1.13;;
51995;SDS011;38010;53.264;6.592;2023-02-28T11:43:17;0.68;;;0.60;;
51995;SDS011;38010;53.264;6.592;2023-02-28T11:45:54;0.75;;;0.57;;
51995;SDS011;38010;53.264;6.592;2023-02-28T11:48:39;0.60;;;0.57;;
51995;SDS011;38010;53.264;6.592;2023-02-28T11:51:24;0.70;;;0.70;;
51995;SDS011;38010;53.264;6.592;2023-02-28T11:53:59;1.58;;;0.70;;
51995;SDS011;38010;53.264;6.592;2023-02-28T11:56:37;0.80;;;0.60;;
51995;SDS011;38010;53.264;6.592;2023-02-28T12:07:31;0.60;;;0.60;;
51995;SDS011;38010;53.264;6.592;2023-02-28T12:10:21;1.27;;;0.68;;
51995;SDS011;38010;53.264;6.592;2023-02-28T12:19:04;0.50;;;0.50;;
51995;SDS011;38010;53.264;6.592;2023-02-28T12:21:53;1.08;;;0.65;;
51995;SDS011;38010;53.264;6.592;2023-02-28T12:27:07;1.00;;;0.82;;
51995;SDS011;38010;53.264;6.592;2023-02-28T12:29:44;0.77;;;0.50;;
51995;SDS011;38010;53.264;6.592;2023-02-28T12:32:32;0.55;;;0.55;;
51995;SDS011;38010;53.264;6.592;2023-02-28T12:35:02;0.60;;;0.57;;
51995;SDS011;38010;53.264;6.592;2023-02-28T12:40:12;0.90;;;0.70;;
51995;SDS011;38010;53.264;6.592;2023-02-28T12:42:42;1.17;;;0.70;;
51995;SDS011;38010;53.264;6.592;2023-02-28T12:45:27;0.73;;;0.60;;
51995;SDS011;38010;53.264;6.592;2023-02-28T12:51:04;0.45;;;0.45;;
51995;SDS011;38010;53.264;6.592;2023-02-28T12:58:43;0.50;;;0.50;;
51995;SDS011;38010;53.264;6.592;2023-02-28T13:09:19;0.82;;;0.73;;
51995;SDS011;38010;53.264;6.592;2023-02-28T13:11:49;0.73;;;0.60;;
51995;SDS011;38010;53.264;6.592;2023-02-28T13:19:34;0.63;;;0.60;;
51995;SDS011;38010;53.264;6.592;2023-02-28T13:22:05;0.65;;;0.57;;
51995;SDS011;38010;53.264;6.592;2023-02-28T13:25:00;0.70;;;0.50;;
51995;SDS011;38010;53.264;6.592;2023-02-28T13:36:01;1.13;;;0.60;;
51995;SDS011;38010;53.264;6.592;2023-02-28T13:42:41;0.70;;;0.50;;
51995;SDS011;38010;53.264;6.592;2023-02-28T13:47:29;1.40;;;0.70;;
51995;SDS011;38010;53.264;6.592;2023-02-28T13:53:12;0.95;;;0.73;;
51995;SDS011;38010;53.264;6.592;2023-02-28T13:55:54;2.28;;;0.80;;
51995;SDS011;38010;53.264;6.592;2023-02-28T14:20:47;0.82;;;0.80;;
51995;SDS011;38010;53.264;6.592;2023-02-28T14:23:20;0.77;;;0.68;;
51995;SDS011;38010;53.264;6.592;2023-02-28T14:33:41;0.93;;;0.70;;
51995;SDS011;38010;53.264;6.592;2023-02-28T14:36:18;1.13;;;0.60;;
51995;SDS011;38010;53.264;6.592;2023-02-28T14:38:52;0.73;;;0.70;;
51995;SDS011;38010;53.264;6.592;2023-02-28T14:44:00;0.60;;;0.60;;
51995;SDS011;38010;53.264;6.592;2023-02-28T14:46:30;0.75;;;0.60;;
51995;SDS011;38010;53.264;6.592;2023-02-28T14:49:03;0.82;;;0.80;;
51995;SDS011;38010;53.264;6.592;2023-02-28T14:51:37;1.17;;;0.90;;
51995;SDS011;38010;53.264;6.592;2023-02-28T14:54:03;0.75;;;0.70;;
51995;SDS011;38010;53.264;6.592;2023-02-28T14:56:33;0.98;;;0.70;;
51995;SDS011;38010;53.264;6.592;2023-02-28T14:59:02;1.95;;;0.70;;
51995;SDS011;38010;53.264;6.592;2023-02-28T15:01:29;1.27;;;0.98;;
51995;SDS011;38010;53.264;6.592;2023-02-28T15:04:04;0.77;;;0.75;;
51995;SDS011;38010;53.264;6.592;2023-02-28T15:06:31;0.70;;;0.70;;
51995;SDS011;38010;53.264;6.592;2023-02-28T15:09:14;0.80;;;0.80;;
51995;SDS011;38010;53.264;6.592;2023-02-28T15:11:41;0.82;;;0.70;;
51995;SDS011;38010;53.264;6.592;2023-02-28T15:14:18;0.75;;;0.60;;
51995;SDS011;38010;53.264;6.592;2023-02-28T15:16:46;0.95;;;0.80;;
51995;SDS011;38010;53.264;6.592;2023-02-28T15:19:21;1.42;;;0.80;;
51995;SDS011;38010;53.264;6.592;2023-02-28T15:21:51;1.27;;;0.80;;
51995;SDS011;38010;53.264;6.592;2023-02-28T15:27:09;0.93;;;0.70;;
51995;SDS011;38010;53.264;6.592;2023-02-28T15:29:45;0.60;;;0.60;;
51995;SDS011;38010;53.264;6.592;2023-02-28T15:32:24;0.80;;;0.70;;
51995;SDS011;38010;53.264;6.592;2023-02-28T15:34:55;1.17;;;0.60;;
51995;SDS011;38010;53.264;6.592;2023-02-28T15:39:56;1.15;;;0.88;;
51995;SDS011;38010;53.264;6.592;2023-02-28T15:42:29;0.90;;;0.80;;
51995;SDS011;38010;53.264;6.592;2023-02-28T15:44:56;0.85;;;0.70;;
51995;SDS011;38010;53.264;6.592;2023-02-28T15:47:23;1.23;;;0.90;;
51995;SDS011;38010;53.264;6.592;2023-02-28T15:49:52;0.77;;;0.60;;
51995;SDS011;38010;53.264;6.592;2023-02-28T15:52:21;0.80;;;0.70;;
51995;SDS011;38010;53.264;6.592;2023-02-28T15:55:20;0.82;;;0.70;;
51995;SDS011;38010;53.264;6.592;2023-02-28T15:57:48;0.88;;;0.70;;
51995;SDS011;38010;53.264;6.592;2023-02-28T16:00:19;0.77;;;0.70;;
51995;SDS011;38010;53.264;6.592;2023-02-28T16:02:47;1.30;;;0.88;;
51995;SDS011;38010;53.264;6.592;2023-02-28T16:05:20;0.82;;;0.70;;
51995;SDS011;38010;53.264;6.592;2023-02-28T16:07:58;0.70;;;0.70;;
51995;SDS011;38010;53.264;6.592;2023-02-28T16:10:25;1.42;;;0.80;;
51995;SDS011;38010;53.264;6.592;2023-02-28T16:12:54;0.98;;;0.70;;
51995;SDS011;38010;53.264;6.592;2023-02-28T16:15:25;0.80;;;0.60;;
51995;SDS011;38010;53.264;6.592;2023-02-28T16:17:53;1.95;;;1.00;;
51995;SDS011;38010;53.264;6.592;2023-02-28T16:20:21;0.75;;;0.70;;
51995;SDS011;38010;53.264;6.592;2023-02-28T16:22:48;0.95;;;0.77;;
51995;SDS011;38010;53.264;6.592;2023-02-28T16:25:15;0.73;;;0.60;;
51995;SDS011;38010;53.264;6.592;2023-02-28T16:27:44;0.60;;;0.60;;
51995;SDS011;38010;53.264;6.592;2023-02-28T16:30:24;0.85;;;0.65;;
51995;SDS011;38010;53.264;6.592;2023-02-28T16:32:51;1.20;;;0.70;;
51995;SDS011;38010;53.264;6.592;2023-02-28T16:35:19;0.82;;;0.70;;
51995;SDS011;38010;53.264;6.592;2023-02-28T16:37:45;1.13;;;0.70;;
51995;SDS011;38010;53.264;6.592;2023-02-28T16:40:15;1.23;;;0.90;;
51995;SDS011;38010;53.264;6.592;2023-02-28T16:42:43;0.70;;;0.70;;
51995;SDS011;38010;53.264;6.592;2023-02-28T16:45:14;1.10;;;0.80;;
51995;SDS011;38010;53.264;6.592;2023-02-28T16:47:46;1.55;;;0.70;;
51995;SDS011;38010;53.264;6.592;2023-02-28T16:50:12;0.68;;;0.65;;
51995;SDS011;38010;53.264;6.592;2023-02-28T16:52:58;1.10;;;0.80;;
51995;SDS011;38010;53.264;6.592;2023-02-28T16:55:25;0.73;;;0.68;;
51995;SDS011;38010;53.264;6.592;2023-02-28T16:57:55;0.80;;;0.60;;
51995;SDS011;38010;53.264;6.592;2023-02-28T17:00:23;0.70;;;0.70;;
51995;SDS011;38010;53.264;6.592;2023-02-28T17:02:50;0.90;;;0.70;;
51995;SDS011;38010;53.264;6.592;2023-02-28T17:05:16;0.80;;;0.63;;
51995;SDS011;38010;53.264;6.592;2023-02-28T17:07:43;0.60;;;0.60;;
51995;SDS011;38010;53.264;6.592;2023-02-28T17:10:17;0.63;;;0.63;;
51995;SDS011;38010;53.264;6.592;2023-02-28T17:12:45;0.70;;;0.70;;
51995;SDS011;38010;53.264;6.592;2023-02-28T17:15:11;0.57;;;0.57;;
51995;SDS011;38010;53.264;6.592;2023-02-28T17:17:38;0.70;;;0.65;;
51995;SDS011;38010;53.264;6.592;2023-02-28T17:20:05;1.02;;;0.70;;
51995;SDS011;38010;53.264;6.592;2023-02-28T17:22:32;0.98;;;0.60;;
51995;SDS011;38010;53.264;6.592;2023-02-28T17:24:57;0.65;;;0.52;;
51995;SDS011;38010;53.264;6.592;2023-02-28T17:27:24;1.35;;;0.70;;
51995;SDS011;38010;53.264;6.592;2023-02-28T17:29:50;0.63;;;0.60;;
51995;SDS011;38010;53.264;6.592;2023-02-28T17:32:15;0.63;;;0.52;;
51995;SDS011;38010;53.264;6.592;2023-02-28T17:34:41;0.60;;;0.55;;